»·PEaware :: FDX1443 KRNO-KSFO

FDX1443 :: KRNO-KSFO

FLIGHT INFORMATION

Flight Status: Arrived
Operator:
Federal Express
More flights by this operator :: More flights under this callsign
Pilot: Brian M. (10491)
Aircraft: BOEING 727-200
(B722)
More flights by this aircraft type
Origin: KRNO Reno/Tahoe Intl
United States
Destination: KSFO San Francisco Intl
United States
More flights between these airports :: More routes between these airports
Route: +ZEFFR6 MRLET LEGGS BDEGA3
File this flight plan on PilotEdge
Remarks: RMK / SIMBRIEF
Altitude:
(Current/Filed)
28,000ft
Speed:
(Current/Filed)
484kts
Departed: 04-Mar-20 09:35 AM
Arrived: 04-Mar-20 10:25 AM
Distance/Time
Traveled:
166nm/0:49
Distance/Time
To Go:
Arrived

Flight Plot

Page will automatically refresh every two minutes.


Map Options




Map Legend


Flown Route
Filed Route
Departure Airport
Arrival Airport
Navaid (VOR, NDB)
Fix

Horizontal Profiles

Position Reports

Time Latitude Longitude Heading Altitude Ground
Speed
04-Mar-20 09:20 39.509590 -119.774247 330 4427ft 0kts
04-Mar-20 09:21 39.509590 -119.774247 330 4427ft 0kts
04-Mar-20 09:22 39.509590 -119.774247 330 4427ft 0kts
04-Mar-20 09:23 39.509590 -119.774247 330 4427ft 0kts
04-Mar-20 09:24 39.509507 -119.774185 329 4427ft 2kts
04-Mar-20 09:25 39.509079 -119.774361 91 4427ft 0kts
04-Mar-20 09:26 39.509088 -119.774456 95 4427ft 0kts
04-Mar-20 09:27 39.509088 -119.774456 95 4427ft 0kts
04-Mar-20 09:28 39.509088 -119.774456 95 4427ft 0kts
04-Mar-20 09:29 39.509088 -119.774456 95 4427ft 0kts
04-Mar-20 09:30 39.509074 -119.774286 96 4427ft 0kts
04-Mar-20 09:30 39.509056 -119.774072 95 4427ft 11kts
04-Mar-20 09:32 39.512397 -119.771493 359 4427ft 16kts
04-Mar-20 09:33 39.513707 -119.770832 80 4427ft 0kts
04-Mar-20 09:33 39.513713 -119.769904 102 4427ft 10kts
04-Mar-20 09:35 39.483782 -119.769699 183 5243ft 166kts
04-Mar-20 09:36 39.431312 -119.775095 178 7522ft 220kts
04-Mar-20 09:36 39.376021 -119.769383 174 9616ft 259kts
04-Mar-20 09:37 39.312249 -119.769628 191 11803ft 278kts
04-Mar-20 09:38 39.233734 -119.793722 196 14220ft 306kts
04-Mar-20 09:39 39.156640 -119.838091 238 16636ft 316kts
04-Mar-20 09:40 39.146923 -119.948883 286 18435ft 338kts
04-Mar-20 09:41 39.170097 -120.077188 283 19073ft 400kts
04-Mar-20 09:42 39.189410 -120.193453 283 22561ft 364kts
04-Mar-20 09:43 39.210542 -120.319723 283 24780ft 361kts
04-Mar-20 09:44 39.231702 -120.448440 283 26294ft 370kts
04-Mar-20 09:45 39.253133 -120.579331 283 27683ft 375kts
04-Mar-20 09:46 39.274982 -120.712821 282 27957ft 379kts
04-Mar-20 09:47 39.296771 -120.846827 282 27954ft 381kts
04-Mar-20 09:48 39.318630 -120.982647 282 27955ft 388kts
04-Mar-20 09:49 39.313250 -121.120113 243 28333ft 394kts
04-Mar-20 09:50 39.242525 -121.236309 235 27282ft 418kts
04-Mar-20 09:51 39.169210 -121.354795 234 25986ft 418kts
04-Mar-20 09:52 39.094935 -121.468026 233 24685ft 408kts
04-Mar-20 09:53 39.022286 -121.577137 233 24150ft 394kts
04-Mar-20 09:54 38.951420 -121.684062 232 24156ft 390kts
04-Mar-20 09:55 38.882176 -121.788680 233 24155ft 388kts
04-Mar-20 09:56 38.812262 -121.893947 232 24156ft 386kts
04-Mar-20 09:57 38.749311 -121.988367 232 24124ft 385kts
04-Mar-20 09:58 38.679792 -122.092287 232 24159ft 382kts
04-Mar-20 09:59 38.610582 -122.195461 232 24156ft 380kts
04-Mar-20 10:00 38.541249 -122.298522 232 24156ft 379kts
04-Mar-20 10:01 38.472453 -122.400422 232 24156ft 377kts
04-Mar-20 10:02 38.402668 -122.504023 232 23295ft 379kts
04-Mar-20 10:03 38.333396 -122.606789 232 21789ft 380kts
04-Mar-20 10:04 38.265643 -122.706921 232 20310ft 375kts
04-Mar-20 10:05 38.169638 -122.746163 175 18814ft 385kts
04-Mar-20 10:06 38.064379 -122.720538 170 17314ft 382kts
04-Mar-20 10:07 37.960282 -122.691275 168 15810ft 379kts
04-Mar-20 10:08 37.866880 -122.639488 139 13925ft 361kts
04-Mar-20 10:09 37.803077 -122.570541 141 11716ft 293kts
04-Mar-20 10:10 37.743635 -122.508606 140 10997ft 287kts
04-Mar-20 10:11 37.678482 -122.438993 140 10994ft 312kts
04-Mar-20 10:12 37.621465 -122.378411 143 10979ft 234kts
04-Mar-20 10:13 37.566653 -122.338886 153 9655ft 250kts
04-Mar-20 10:14 37.508812 -122.301123 153 7576ft 222kts
04-Mar-20 10:15 37.455077 -122.266426 153 5937ft 205kts
04-Mar-20 10:16 37.423042 -122.214718 113 4238ft 192kts
04-Mar-20 10:17 37.407041 -122.160783 66 3746ft 145kts
04-Mar-20 10:18 37.456751 -122.168935 335 4100ft 231kts
04-Mar-20 10:19 37.509927 -122.199714 335 4039ft 173kts
04-Mar-20 10:20 37.550358 -122.224236 335 2915ft 156kts
04-Mar-20 10:21 37.575936 -122.268334 300 1627ft 149kts
04-Mar-20 10:22 37.593935 -122.310241 299 948ft 147kts
04-Mar-20 10:23 37.611954 -122.353171 299 137ft 126kts
04-Mar-20 10:24 37.623111 -122.379832 298 25ft 31kts
04-Mar-20 10:25 37.624687 -122.381261 3 25ft 0kts
04-Mar-20 10:26 37.624809 -122.381258 358 25ft 7kts
04-Mar-20 10:27 37.626810 -122.385130 299 25ft 18kts
04-Mar-20 10:28 37.629477 -122.391399 301 25ft 17kts
04-Mar-20 10:29 37.633448 -122.391533 29 25ft 15kts
04-Mar-20 10:30 37.635535 -122.388134 11 25ft 8kts
04-Mar-20 10:31 37.636149 -122.387639 54 25ft 0kts
04-Mar-20 10:32 37.636149 -122.387639 54 25ft 0kts
04-Mar-20 10:33 37.636149 -122.387639 54 25ft 0kts

Navigation Log

Ident Type
Flight plan parsing failed, navigation log unavailable